createdAt,value
2023-02-08T00:00:49.102Z,104055.50
2023-02-08T00:03:16.126Z,104057.28
2023-02-08T00:05:42.638Z,104059.09
2023-02-08T00:08:09.501Z,104062.66
2023-02-08T00:10:36.072Z,104057.28
2023-02-08T00:13:02.693Z,104061.69
2023-02-08T00:15:29.336Z,104063.50
2023-02-08T00:17:55.850Z,104058.16
2023-02-08T00:20:22.432Z,104057.28
2023-02-08T00:22:48.989Z,104058.16
2023-02-08T00:25:15.550Z,104053.69
2023-02-08T00:27:42.013Z,104047.47
2023-02-08T00:30:09.150Z,104039.44
2023-02-08T00:32:35.676Z,104031.41
2023-02-08T00:35:02.185Z,104035.03
2023-02-08T00:37:28.720Z,104027.91
2023-02-08T00:39:55.225Z,104027.00
2023-02-08T00:42:21.744Z,104022.63
2023-02-08T00:44:48.230Z,104020.81
2023-02-08T00:47:14.768Z,104021.84
2023-02-08T00:49:41.285Z,104025.44
2023-02-08T00:52:07.792Z,104029.91
2023-02-08T00:54:34.304Z,104024.63
2023-02-08T00:57:00.829Z,104022.91
2023-02-08T00:59:27.831Z,104026.47
2023-02-08T01:01:54.355Z,104023.00
2023-02-08T01:04:20.903Z,104020.34
2023-02-08T01:06:47.411Z,104024.81
2023-02-08T01:09:13.964Z,104018.66
2023-02-08T01:11:40.458Z,104023.13
2023-02-08T01:14:07.002Z,104026.75
2023-02-08T01:16:34.681Z,104018.75
2023-02-08T01:19:03.904Z,104027.72
2023-02-08T01:21:33.942Z,104026.94
2023-02-08T01:24:00.715Z,104030.47
2023-02-08T01:26:27.474Z,104035.00
2023-02-08T01:28:55.645Z,104027.84
2023-02-08T01:31:29.471Z,104025.28
2023-02-08T01:33:57.592Z,104019.94
2023-02-08T01:36:25.032Z,104020.81
2023-02-08T01:38:51.843Z,104021.69
2023-02-08T01:41:29.944Z,104017.28
2023-02-08T01:44:27.751Z,104019.97
2023-02-08T01:46:54.552Z,104019.03
2023-02-08T01:49:32.290Z,104018.16
2023-02-08T01:52:06.135Z,104017.28
2023-02-08T01:54:43.476Z,104018.16
2023-02-08T01:57:10.407Z,104014.59
2023-02-08T01:59:47.245Z,104005.72
2023-02-08T02:02:17.505Z,104011.94
2023-02-08T02:04:44.472Z,104011.94
2023-02-08T02:07:13.335Z,104017.28
2023-02-08T02:09:44.892Z,104022.63
2023-02-08T02:12:12.334Z,104013.69
2023-02-08T02:14:40.082Z,104006.59
2023-02-08T02:17:07.355Z,104006.59
2023-02-08T02:19:48.405Z,104012.06
2023-02-08T02:22:20.776Z,104011.16
2023-02-08T02:25:05.258Z,104011.19
2023-02-08T02:27:53.312Z,104009.47
2023-02-08T02:30:38.663Z,104005.91
2023-02-08T02:33:33.528Z,103992.66
2023-02-08T02:36:22.322Z,103988.25
2023-02-08T02:39:08.248Z,103988.25
2023-02-08T02:42:13.271Z,103987.44
2023-02-08T02:44:51.739Z,103980.34
2023-02-08T02:47:27.236Z,103982.16
2023-02-08T02:50:06.620Z,103986.72
2023-02-08T02:52:43.882Z,103981.41
2023-02-08T02:55:16.211Z,103974.25
2023-02-08T02:57:46.944Z,103972.50
2023-02-08T03:00:21.443Z,103971.72
2023-02-08T03:02:47.949Z,103967.28
2023-02-08T03:05:14.591Z,103977.09
2023-02-08T03:08:00.041Z,103976.25
2023-02-08T03:11:01.265Z,103968.34
2023-02-08T03:13:42.946Z,103970.88
2023-02-08T03:16:27.738Z,103976.25
2023-02-08T03:19:27.579Z,103969.16
2023-02-08T03:22:02.486Z,103982.44
2023-02-08T03:24:31.728Z,103985.13
2023-02-08T03:27:09.484Z,103976.31
2023-02-08T03:29:38.978Z,103973.56
2023-02-08T03:32:26.657Z,103983.47
2023-02-08T03:35:08.016Z,103983.47
2023-02-08T03:37:46.531Z,103978.97
2023-02-08T03:40:18.564Z,103977.19
2023-02-08T03:42:48.306Z,103972.78
2023-02-08T03:45:26.721Z,103974.63
2023-02-08T03:47:56.728Z,103974.63
2023-02-08T03:50:24.464Z,103972.88
2023-02-08T03:52:52.542Z,103973.75
2023-02-08T03:55:24.727Z,103975.59
2023-02-08T03:58:11.498Z,103976.63
2023-02-08T04:00:42.674Z,103969.50
2023-02-08T04:03:30.708Z,103977.69
2023-02-08T04:05:57.324Z,103982.94
2023-02-08T04:08:24.554Z,103986.53
2023-02-08T04:10:51.090Z,103986.56
2023-02-08T04:13:17.654Z,103987.50
2023-02-08T04:15:44.763Z,103983.09
2023-02-08T04:18:11.355Z,103977.75
2023-02-08T04:20:38.048Z,103976.94
2023-02-08T04:23:04.644Z,103982.28
2023-02-08T04:25:31.125Z,103975.19
2023-02-08T04:27:57.640Z,103975.19
2023-02-08T04:30:24.175Z,103974.34
2023-02-08T04:32:50.680Z,103971.72
2023-02-08T04:35:17.201Z,103976.22
2023-02-08T04:37:43.720Z,103967.28
2023-02-08T04:40:11.034Z,103970.88
2023-02-08T04:42:37.621Z,103960.19
2023-02-08T04:45:04.337Z,103959.25
2023-02-08T04:47:30.865Z,103956.59
2023-02-08T04:49:57.365Z,103966.38
2023-02-08T04:52:23.902Z,103955.69
2023-02-08T04:54:50.389Z,103947.63
2023-02-08T04:57:17.003Z,103951.22
2023-02-08T04:59:43.507Z,103952.09
2023-02-08T05:02:10.028Z,103955.69
2023-02-08T05:04:36.571Z,103954.84
2023-02-08T05:07:03.270Z,103949.50
2023-02-08T05:09:29.809Z,103949.53
2023-02-08T05:11:56.279Z,103945.13
2023-02-08T05:14:23.065Z,103949.59
2023-02-08T05:16:49.591Z,103949.63
2023-02-08T05:19:16.078Z,103954.13
2023-02-08T05:21:42.580Z,103950.66
2023-02-08T05:24:12.734Z,103950.69
2023-02-08T05:26:40.463Z,103948.00
2023-02-08T05:29:07.020Z,103943.59
2023-02-08T05:31:33.644Z,103949.81
2023-02-08T05:34:00.392Z,103948.16
2023-02-08T05:36:27.009Z,103946.34
2023-02-08T05:38:53.558Z,103941.03
2023-02-08T05:41:20.326Z,103941.03
2023-02-08T05:43:46.858Z,103935.78
2023-02-08T05:46:13.776Z,103935.78
2023-02-08T05:48:40.262Z,103931.38
2023-02-08T05:51:06.783Z,103927.84
2023-02-08T05:53:33.440Z,103935.84
2023-02-08T05:56:00.012Z,103932.22
2023-02-08T05:58:26.809Z,103934.03
2023-02-08T06:00:53.521Z,103923.34
2023-02-08T06:03:20.238Z,103923.28
2023-02-08T06:05:47.040Z,103925.09
2023-02-08T06:08:13.620Z,103934.84
2023-02-08T06:10:40.432Z,103928.63
2023-02-08T06:13:07.079Z,103929.56
2023-02-08T06:15:33.747Z,103924.22
2023-02-08T06:18:00.240Z,103933.19
2023-02-08T06:20:26.772Z,103935.00
2023-02-08T06:22:53.267Z,103928.81
2023-02-08T06:25:19.775Z,103923.53
2023-02-08T06:27:46.334Z,103927.94
2023-02-08T06:30:13.273Z,103927.09
2023-02-08T06:32:39.902Z,103928.91
2023-02-08T06:35:06.894Z,103933.38
2023-02-08T06:37:33.444Z,103935.19
2023-02-08T06:40:01.963Z,103948.56
2023-02-08T06:42:28.941Z,103949.47
2023-02-08T06:44:56.049Z,103953.03
2023-02-08T06:47:23.321Z,103951.28
2023-02-08T06:49:50.249Z,103950.34
2023-02-08T06:52:16.849Z,103950.34
2023-02-08T06:54:43.349Z,103938.84
2023-02-08T06:57:12.796Z,103935.25
2023-02-08T06:59:39.991Z,103930.81
2023-02-08T07:02:11.671Z,103917.47
2023-02-08T07:04:38.289Z,103925.47
2023-02-08T07:07:04.763Z,103923.75
2023-02-08T07:09:34.017Z,103922.03
2023-02-08T07:12:04.838Z,103923.81
2023-02-08T07:14:33.888Z,103926.53
2023-02-08T07:17:01.571Z,103927.47
2023-02-08T07:19:28.657Z,103928.41
2023-02-08T07:21:55.609Z,103939.09
2023-02-08T07:24:22.762Z,103940.88
2023-02-08T07:26:49.390Z,103941.78
2023-02-08T07:29:15.877Z,103935.59
2023-02-08T07:31:42.383Z,103931.19
2023-02-08T07:34:08.859Z,103932.97
2023-02-08T07:36:35.758Z,103934.81
2023-02-08T07:39:02.871Z,103934.81
2023-02-08T07:41:29.396Z,103928.63
2023-02-08T07:43:55.891Z,103932.16
2023-02-08T07:46:22.745Z,103933.97
2023-02-08T07:48:49.974Z,103919.81
2023-02-08T07:51:16.471Z,103926.88
2023-02-08T07:53:43.195Z,103917.06
2023-02-08T07:56:10.558Z,103920.69
2023-02-08T07:58:37.601Z,103916.13
2023-02-08T08:01:19.689Z,103919.69
2023-02-08T08:03:48.595Z,103917.03
2023-02-08T08:06:15.229Z,103916.00
2023-02-08T08:08:42.499Z,103916.00
2023-02-08T08:11:08.978Z,103914.13
2023-02-08T08:13:35.470Z,103911.44
2023-02-08T08:16:02.029Z,103918.47
2023-02-08T08:18:29.266Z,103909.53
2023-02-08T08:20:55.819Z,103921.94
2023-02-08T08:23:22.803Z,103914.75
2023-02-08T08:25:50.172Z,103923.47
2023-02-08T08:28:17.130Z,103914.47
2023-02-08T08:30:44.940Z,103918.78
2023-02-08T08:33:14.197Z,103910.59
2023-02-08T08:35:42.516Z,103907.81
2023-02-08T08:38:09.543Z,103913.84
2023-02-08T08:40:36.184Z,103912.88
2023-02-08T08:43:02.674Z,103904.75
2023-02-08T08:45:29.298Z,103904.63
2023-02-08T08:47:55.877Z,103902.69
2023-02-08T08:50:22.447Z,103899.84
2023-02-08T08:52:48.942Z,103897.94
2023-02-08T08:55:15.519Z,103903.13
2023-02-08T08:57:42.105Z,103897.66
2023-02-08T09:00:09.220Z,103909.09
2023-02-08T09:02:35.700Z,103904.50
2023-02-08T09:05:04.193Z,103895.44
2023-02-08T09:07:30.941Z,103912.22
2023-02-08T09:09:57.446Z,103905.00
2023-02-08T09:12:23.962Z,103907.59
2023-02-08T09:14:50.551Z,103911.94
2023-02-08T09:17:17.065Z,103903.78
2023-02-08T09:19:43.559Z,103906.31
2023-02-08T09:22:10.098Z,103908.88
2023-02-08T09:24:36.895Z,103902.53
2023-02-08T09:27:03.653Z,103909.56
2023-02-08T09:29:32.691Z,103907.63
2023-02-08T09:31:59.663Z,103904.81
2023-02-08T09:34:26.246Z,103908.25
2023-02-08T09:36:52.816Z,103909.91
2023-02-08T09:39:23.206Z,103911.59
2023-02-08T09:42:05.448Z,103917.56
2023-02-08T09:44:37.418Z,103915.53
2023-02-08T09:47:18.692Z,103922.44
2023-02-08T09:50:18.685Z,103922.19
2023-02-08T09:52:54.795Z,103911.19
2023-02-08T09:55:33.405Z,103903.78
2023-02-08T09:58:04.325Z,103899.03
2023-02-08T10:00:35.899Z,103901.41
2023-02-08T10:03:03.504Z,103904.69
2023-02-08T10:05:31.354Z,103905.28
2023-02-08T10:08:00.151Z,103909.41
2023-02-08T10:10:41.891Z,103910.09
2023-02-08T10:13:41.010Z,103916.06
2023-02-08T10:16:36.553Z,103913.88
2023-02-08T10:19:37.933Z,103918.13
2023-02-08T10:22:34.581Z,103925.00
2023-02-08T10:25:01.083Z,103923.78
2023-02-08T10:27:56.756Z,103927.09
2023-02-08T10:30:37.465Z,103927.72
2023-02-08T10:33:17.532Z,103928.41
2023-02-08T10:35:49.937Z,103926.38
2023-02-08T10:38:22.780Z,103929.69
2023-02-08T10:40:53.368Z,103931.22
2023-02-08T10:43:37.173Z,103927.50
2023-02-08T10:46:35.614Z,103921.06
2023-02-08T10:49:27.647Z,103925.28
2023-02-08T10:51:55.277Z,103925.97
2023-02-08T10:54:21.845Z,103916.91
2023-02-08T10:56:57.403Z,103920.31
2023-02-08T10:59:39.663Z,103910.31
2023-02-08T11:02:21.790Z,103904.78
2023-02-08T11:05:19.002Z,103900.19
2023-02-08T11:07:46.001Z,103899.97
2023-02-08T11:10:18.484Z,103896.38
2023-02-08T11:13:05.688Z,103898.03
2023-02-08T11:15:56.168Z,103894.34
2023-02-08T11:18:30.833Z,103892.44
2023-02-08T11:21:00.290Z,103892.38
2023-02-08T11:23:30.253Z,103893.16
2023-02-08T11:26:22.937Z,103880.59
2023-02-08T11:29:02.290Z,103877.78
2023-02-08T11:31:29.828Z,103877.63
2023-02-08T11:34:00.388Z,103873.97
2023-02-08T11:36:27.961Z,103867.66
2023-02-08T11:38:55.051Z,103855.03
2023-02-08T11:41:23.522Z,103863.00
2023-02-08T11:43:58.344Z,103861.13
2023-02-08T11:46:28.380Z,103857.41
2023-02-08T11:48:56.154Z,103851.97
2023-02-08T11:51:29.849Z,103850.06
2023-02-08T11:53:57.077Z,103844.69
2023-02-08T11:56:29.383Z,103840.03
2023-02-08T11:59:17.475Z,103841.75
2023-02-08T12:01:44.223Z,103842.56
2023-02-08T12:04:13.182Z,103845.16
2023-02-08T12:06:48.652Z,103834.34
2023-02-08T12:09:38.211Z,103835.97
2023-02-08T12:12:23.395Z,103831.41
2023-02-08T12:14:58.936Z,103821.44
2023-02-08T12:17:28.603Z,103809.78
2023-02-08T12:20:13.593Z,103805.28
2023-02-08T12:22:47.784Z,103806.91
2023-02-08T12:25:34.819Z,103796.97
2023-02-08T12:28:48.663Z,103795.06
2023-02-08T12:31:53.399Z,103786.84
2023-02-08T12:34:32.968Z,103777.75
2023-02-08T12:37:31.784Z,103774.00
2023-02-08T12:40:52.653Z,103770.31
2023-02-08T12:43:25.030Z,103766.59
2023-02-08T12:45:57.493Z,103772.72
2023-02-08T12:48:34.671Z,103769.88
2023-02-08T12:51:48.709Z,103759.16
2023-02-08T12:54:46.731Z,103759.84
2023-02-08T12:57:16.985Z,103756.09
2023-02-08T13:00:17.789Z,103748.94
2023-02-08T13:03:05.110Z,103753.19
2023-02-08T13:05:38.012Z,103745.88
2023-02-08T13:08:13.439Z,103742.06
2023-02-08T13:10:42.470Z,103734.72
2023-02-08T13:13:18.061Z,103730.13
2023-02-08T13:15:52.091Z,103731.72
2023-02-08T13:18:34.273Z,103720.88
2023-02-08T13:21:05.470Z,103724.25
2023-02-08T13:23:52.579Z,103719.63
2023-02-08T13:26:24.192Z,103718.59
2023-02-08T13:28:53.115Z,103711.31
2023-02-08T13:31:24.802Z,103710.38
2023-02-08T13:34:01.765Z,103707.59
2023-02-08T13:36:41.904Z,103702.13
2023-02-08T13:39:29.154Z,103700.13
2023-02-08T13:41:56.712Z,103700.91
2023-02-08T13:44:34.400Z,103690.16
2023-02-08T13:47:02.096Z,103686.50
2023-02-08T13:50:01.755Z,103688.22
2023-02-08T13:52:46.835Z,103683.63
2023-02-08T13:55:30.439Z,103688.06
2023-02-08T13:58:02.661Z,103692.47
2023-02-08T14:00:35.916Z,103678.94
2023-02-08T14:03:03.876Z,103673.56
2023-02-08T14:05:35.728Z,103670.88
2023-02-08T14:08:04.297Z,103669.91
2023-02-08T14:10:41.754Z,103672.59
2023-02-08T14:13:56.788Z,103673.56
2023-02-08T14:16:32.163Z,103673.47
2023-02-08T14:19:05.266Z,103661.84
2023-02-08T14:21:38.181Z,103669.06
2023-02-08T14:24:27.873Z,103659.16
2023-02-08T14:27:09.662Z,103653.78
2023-02-08T14:29:37.347Z,103655.44
2023-02-08T14:32:05.065Z,103655.44
2023-02-08T14:34:35.506Z,103651.78
2023-02-08T14:37:06.535Z,103647.38
2023-02-08T14:39:34.904Z,103636.63
2023-02-08T14:42:08.750Z,103629.50
2023-02-08T14:44:38.219Z,103621.44
2023-02-08T14:47:11.258Z,103623.25
2023-02-08T14:49:42.357Z,103619.72
2023-02-08T14:52:26.041Z,103608.28
2023-02-08T14:55:21.649Z,103605.69
2023-02-08T14:57:48.873Z,103604.81
2023-02-08T15:00:22.050Z,103603.19
2023-02-08T15:02:49.482Z,103595.22
2023-02-08T15:05:46.401Z,103591.06
2023-02-08T15:08:13.180Z,103591.06
2023-02-08T15:10:45.100Z,103596.81
2023-02-08T15:13:20.586Z,103586.34
2023-02-08T15:15:53.253Z,103578.56
2023-02-08T15:18:24.093Z,103571.63
2023-02-08T15:21:15.258Z,103565.91
2023-02-08T15:23:41.801Z,103567.72
2023-02-08T15:26:23.674Z,103566.53
2023-02-08T15:28:50.199Z,103562.22
2023-02-08T15:31:20.620Z,103556.34
2023-02-08T15:33:47.719Z,103557.31
2023-02-08T15:36:35.014Z,103561.22
2023-02-08T15:39:09.938Z,103563.13
2023-02-08T15:41:38.187Z,103560.59
2023-02-08T15:44:29.018Z,103558.09
2023-02-08T15:46:58.904Z,103555.34
2023-02-08T15:49:33.696Z,103552.81
2023-02-08T15:52:01.235Z,103552.06
2023-02-08T15:54:28.208Z,103548.56
2023-02-08T15:57:39.074Z,103549.81
2023-02-08T16:00:19.301Z,103547.03
2023-02-08T16:02:55.929Z,103540.22
2023-02-08T16:05:26.238Z,103540.38
2023-02-08T16:07:53.683Z,103538.72
2023-02-08T16:10:33.715Z,103525.56
2023-02-08T16:13:04.511Z,103527.50
2023-02-08T16:15:38.294Z,103521.44
2023-02-08T16:18:04.791Z,103533.34
2023-02-08T16:20:34.219Z,103527.81
2023-02-08T16:23:21.698Z,103528.84
2023-02-08T16:25:49.758Z,103535.13
2023-02-08T16:28:29.764Z,103525.56
2023-02-08T16:30:59.229Z,103524.81
2023-02-08T16:33:26.743Z,103526.88
2023-02-08T16:36:01.546Z,103519.84
2023-02-08T16:38:32.118Z,103518.97
2023-02-08T16:41:12.194Z,103514.75
2023-02-08T16:43:44.660Z,103514.91
2023-02-08T16:46:11.226Z,103509.66
2023-02-08T16:48:53.973Z,103510.66
2023-02-08T16:51:30.431Z,103508.84
2023-02-08T16:54:03.440Z,103513.50
2023-02-08T16:56:30.066Z,103493.97
2023-02-08T16:58:56.596Z,103496.66
2023-02-08T17:01:24.400Z,103495.00
2023-02-08T17:03:52.887Z,103496.72
2023-02-08T17:06:30.314Z,103492.16
2023-02-08T17:08:58.104Z,103493.72
2023-02-08T17:11:24.929Z,103487.38
2023-02-08T17:13:54.677Z,103489.13
2023-02-08T17:16:23.625Z,103490.94
2023-02-08T17:18:50.418Z,103486.44
2023-02-08T17:21:17.326Z,103489.22
2023-02-08T17:23:45.004Z,103479.34
2023-02-08T17:26:16.001Z,103474.84
2023-02-08T17:28:43.704Z,103474.94
2023-02-08T17:31:14.718Z,103474.16
2023-02-08T17:33:41.556Z,103473.28
2023-02-08T17:36:09.740Z,103462.56
2023-02-08T17:38:39.446Z,103479.59
2023-02-08T17:41:14.880Z,103466.25
2023-02-08T17:43:41.564Z,103476.13
2023-02-08T17:46:10.392Z,103477.09
2023-02-08T17:48:37.084Z,103469.16
2023-02-08T17:51:18.695Z,103467.38
2023-02-08T17:53:45.653Z,103464.81
2023-02-08T17:56:13.367Z,103456.00
2023-02-08T17:58:41.172Z,103456.00
2023-02-08T18:01:10.084Z,103449.84
2023-02-08T18:03:36.912Z,103445.44
2023-02-08T18:06:06.033Z,103448.19
2023-02-08T18:08:32.917Z,103454.50
2023-02-08T18:11:19.438Z,103447.69
2023-02-08T18:13:47.560Z,103450.28
2023-02-08T18:16:20.627Z,103442.38
2023-02-08T18:18:47.320Z,103446.91
2023-02-08T18:21:19.775Z,103443.44
2023-02-08T18:23:47.317Z,103439.13
2023-02-08T18:26:17.052Z,103429.41
2023-02-08T18:28:44.805Z,103434.78
2023-02-08T18:31:15.188Z,103431.44
2023-02-08T18:33:43.550Z,103424.31
2023-02-08T18:36:11.603Z,103422.59
2023-02-08T18:38:39.966Z,103424.50
2023-02-08T18:41:11.360Z,103424.66
2023-02-08T18:43:39.637Z,103418.34
2023-02-08T18:46:09.919Z,103422.00
2023-02-08T18:48:37.897Z,103430.91
2023-02-08T18:51:06.264Z,103429.16
2023-02-08T18:53:35.041Z,103423.88
2023-02-08T18:56:03.555Z,103424.75
2023-02-08T18:58:31.446Z,103429.34
2023-02-08T19:01:13.314Z,103422.31
2023-02-08T19:03:40.547Z,103430.34
2023-02-08T19:06:16.322Z,103427.78
2023-02-08T19:08:44.985Z,103430.44
2023-02-08T19:11:35.326Z,103427.94
2023-02-08T19:14:05.352Z,103422.56
2023-02-08T19:16:33.437Z,103427.94
2023-02-08T19:19:01.158Z,103433.38
2023-02-08T19:21:29.160Z,103424.56
2023-02-08T19:23:58.046Z,103423.78
2023-02-08T19:26:26.893Z,103426.53
2023-02-08T19:28:57.271Z,103420.31
2023-02-08T19:31:24.481Z,103426.72
2023-02-08T19:33:58.430Z,103421.38
2023-02-08T19:36:31.913Z,103417.03
2023-02-08T19:38:59.921Z,103416.16
2023-02-08T19:41:27.885Z,103411.75
2023-02-08T19:43:54.875Z,103415.38
2023-02-08T19:46:23.839Z,103421.69
2023-02-08T19:48:51.440Z,103412.78
2023-02-08T19:51:18.627Z,103413.75
2023-02-08T19:53:45.579Z,103422.63
2023-02-08T19:56:15.096Z,103416.47
2023-02-08T19:58:42.119Z,103412.09
2023-02-08T20:01:20.993Z,103413.09
2023-02-08T20:03:49.257Z,103414.84
2023-02-08T20:06:36.041Z,103403.28
2023-02-08T20:09:04.891Z,103405.16
2023-02-08T20:11:35.891Z,103408.78
2023-02-08T20:14:04.359Z,103415.97
2023-02-08T20:16:31.873Z,103425.81
2023-02-08T20:18:58.957Z,103414.22
2023-02-08T20:21:25.602Z,103406.28
2023-02-08T20:23:52.702Z,103406.28
2023-02-08T20:26:24.699Z,103393.84
2023-02-08T20:28:54.291Z,103390.38
2023-02-08T20:31:24.559Z,103395.72
2023-02-08T20:33:52.084Z,103407.38
2023-02-08T20:36:24.510Z,103404.81
2023-02-08T20:38:54.246Z,103406.59
2023-02-08T20:41:22.050Z,103411.06
2023-02-08T20:43:49.017Z,103412.00
2023-02-08T20:46:31.382Z,103412.09
2023-02-08T20:48:59.941Z,103407.69
2023-02-08T20:51:28.623Z,103409.59
2023-02-08T20:53:56.573Z,103413.97
2023-02-08T20:56:32.246Z,103405.25
2023-02-08T20:59:04.537Z,103395.50
2023-02-08T21:01:31.590Z,103401.84
2023-02-08T21:03:58.905Z,103402.81
2023-02-08T21:06:30.823Z,103395.75
2023-02-08T21:08:59.455Z,103388.66
2023-02-08T21:11:29.261Z,103392.19
2023-02-08T21:13:56.651Z,103400.28
2023-02-08T21:16:24.182Z,103394.94
2023-02-08T21:18:50.903Z,103390.53
2023-02-08T21:21:17.945Z,103376.38
2023-02-08T21:23:44.883Z,103377.31
2023-02-08T21:26:14.275Z,103375.59
2023-02-08T21:28:41.274Z,103368.50
2023-02-08T21:31:12.071Z,103368.50
2023-02-08T21:33:38.699Z,103369.53
2023-02-08T21:36:10.292Z,103368.59
2023-02-08T21:38:37.077Z,103366.78
2023-02-08T21:41:15.375Z,103360.63
2023-02-08T21:43:41.909Z,103359.69
2023-02-08T21:46:09.718Z,103355.22
2023-02-08T21:48:56.715Z,103352.59
2023-02-08T21:51:43.677Z,103363.25
2023-02-08T21:54:36.760Z,103355.28
2023-02-08T21:57:05.804Z,103347.25
2023-02-08T21:59:37.277Z,103337.50
2023-02-08T22:02:12.381Z,103337.50
2023-02-08T22:04:57.786Z,103339.38
2023-02-08T22:07:25.658Z,103344.81
2023-02-08T22:09:52.425Z,103345.69
2023-02-08T22:12:21.044Z,103343.09
2023-02-08T22:14:48.904Z,103332.47
2023-02-08T22:17:16.020Z,103325.38
2023-02-08T22:19:42.984Z,103329.00
2023-02-08T22:22:10.497Z,103334.47
2023-02-08T22:24:37.076Z,103333.50
2023-02-08T22:27:03.726Z,103317.59
2023-02-08T22:29:30.268Z,103322.97
2023-02-08T22:31:56.909Z,103314.06
2023-02-08T22:34:24.022Z,103309.66
2023-02-08T22:36:50.516Z,103302.66
2023-02-08T22:39:17.263Z,103310.69
2023-02-08T22:41:43.746Z,103313.47
2023-02-08T22:44:10.354Z,103311.69
2023-02-08T22:46:36.914Z,103306.44
2023-02-08T22:49:03.490Z,103302.91
2023-02-08T22:51:30.252Z,103304.72
2023-02-08T22:53:56.748Z,103309.22
2023-02-08T22:56:23.239Z,103306.53
2023-02-08T22:58:49.759Z,103308.31
2023-02-08T23:01:17.377Z,103300.28
2023-02-08T23:03:44.378Z,103296.69
2023-02-08T23:06:14.938Z,103296.69
2023-02-08T23:08:42.957Z,103297.63
2023-02-08T23:11:12.689Z,103297.63
2023-02-08T23:13:39.231Z,103298.50
2023-02-08T23:16:06.325Z,103302.03
2023-02-08T23:18:35.011Z,103302.03
2023-02-08T23:21:06.510Z,103297.72
2023-02-08T23:23:33.278Z,103298.56
2023-02-08T23:25:59.839Z,103285.28
2023-02-08T23:28:26.726Z,103292.44
2023-02-08T23:30:53.294Z,103291.59
2023-02-08T23:33:19.925Z,103287.25
2023-02-08T23:35:46.467Z,103283.72
2023-02-08T23:38:13.008Z,103276.66
2023-02-08T23:40:42.796Z,103283.88
2023-02-08T23:43:09.482Z,103282.16
2023-02-08T23:45:36.795Z,103283.13
2023-02-08T23:48:03.457Z,103285.84
2023-02-08T23:50:29.973Z,103283.25
2023-02-08T23:52:56.603Z,103293.97
2023-02-08T23:55:23.732Z,103284.22
2023-02-08T23:57:50.294Z,103290.50
